Pagina principale
METAR-TAF:

METAR-TAF

Aeroporti :

Aeroporto di Firenze-Peretola

Firenze, Italia

latitudine: 43-48N, longitudine: 011-12E, altezza: 40 m

Osservazione

Il bollettino è stato emesso 36 minuti fa, alle 22:20 UTC
Vento 3 kt da est
Temperature 23°C
Umidità 61%
Pressione 1019 hPa
Visibilità 10 km o più
nessuna nube inferiore a 1500 m e nessun cumulonembo

METAR: LIRQ 192220Z 10003KT CAVOK 23/15 Q1019

Ora: 00:56 (22:56 UTC)

Previsione

Il bollettino è stato emesso 5 ore e 56 minuti fa, alle 17:00 UTC
Previsione valida dal 19 alle 18 UTC al 20 alle 18 UTC
Vento 5 kt da direzioni variabili
Visibilità 10 km o più
nessuna nube inferiore a 1500 m e nessun cumulonembo

TAF: LIRQ 191700Z 1918/2018 VRB05KT CAVOK

Osservazioni e previsioni meteorologiche di più di 4000 aeroporti (messaggi METAR e TAF).

Le stazioni disponibili sono rappresentate dai dischi gialli e rossi sulla carta.

Puntare il mouse per vedere il nome della stazione.

Clicca sopra per visualizzare le osservazioni e previsioni meteorologiche.

Per cambiare la mappa : fare clic sui pulsanti verdi con una croce nera per ingrandire, il pulsante verde con un trattino per diminuire, o sulla freccia verde per le mappe adiacenti.


METAR-TAF: